Time;durP1;ratioP1;P1;durP2;ratioP2;P2;SDS_P1;SDS_P2;PMS_P1;PMS_P2;Temp;Humidity;BMP_temperature;BMP_pressure;BME280_temperature;BME280_humidity;BME280_pressure;Samples;Min_cycle;Max_cycle;Signal;HPM_P1;HPM_P2
2023/04/06 00:00:30;;;;;;;0.10;0.10;;;3.20;99.90;;;;;;5062797;28;20185;-81
2023/04/06 00:02:56;;;;;;;0.07;0.07;;;3.00;99.90;;;;;;5055434;28;20277;-80
2023/04/06 00:05:23;;;;;;;0.10;0.10;;;3.00;99.90;;;;;;5056783;28;20224;-81
2023/04/06 00:07:49;;;;;;;0.10;0.10;;;2.90;99.90;;;;;;5062437;28;20181;-80
2023/04/06 00:10:15;;;;;;;0.10;0.10;;;2.80;99.90;;;;;;5061123;28;20182;-81
2023/04/06 00:12:41;;;;;;;0.00;0.00;;;2.70;99.90;;;;;;5061945;28;20200;-81
2023/04/06 00:15:07;;;;;;;0.10;0.10;;;2.70;99.90;;;;;;5056849;28;20246;-80
2023/04/06 00:17:32;;;;;;;0.10;0.10;;;2.60;99.90;;;;;;5062965;28;20194;-81
2023/04/06 00:19:58;;;;;;;0.10;0.10;;;2.60;99.90;;;;;;5060077;28;20218;-80
2023/04/06 00:22:23;;;;;;;0.00;0.00;;;2.70;99.90;;;;;;5061695;28;20852;-81
2023/04/06 00:24:49;;;;;;;0.10;0.10;;;2.90;99.90;;;;;;5060378;28;20349;-81
2023/04/06 00:27:15;;;;;;;0.10;0.10;;;3.10;99.90;;;;;;5064062;28;20195;-82
2023/04/06 00:29:40;;;;;;;0.00;0.00;;;3.20;99.90;;;;;;5058319;28;20181;-81
2023/04/06 00:32:06;;;;;;;0.10;0.10;;;3.30;99.90;;;;;;5058812;28;20200;-80
2023/04/06 00:34:31;;;;;;;0.10;0.10;;;3.40;99.90;;;;;;5062764;28;20198;-81
2023/04/06 00:36:57;;;;;;;0.10;0.10;;;3.10;99.90;;;;;;5061055;28;20223;-81
2023/04/06 00:39:22;;;;;;;0.00;0.00;;;3.10;99.90;;;;;;5059214;28;20183;-81
2023/04/06 00:41:52;;;;;;;0.00;0.00;;;3.00;99.90;;;;;;5057269;28;20319;-81
2023/04/06 00:44:18;;;;;;;0.10;0.10;;;2.90;99.90;;;;;;5058907;28;20180;-80
2023/04/06 00:46:44;;;;;;;0.10;0.10;;;2.70;99.90;;;;;;5061703;28;20216;-80
2023/04/06 00:49:10;;;;;;;0.10;0.10;;;2.60;99.90;;;;;;5060778;28;20179;-81
2023/04/06 00:51:36;;;;;;;0.10;0.10;;;2.40;99.90;;;;;;5064683;28;20291;-80
2023/04/06 00:54:01;;;;;;;0.10;0.10;;;2.30;99.90;;;;;;5065471;28;20276;-81
2023/04/06 00:56:27;;;;;;;0.10;0.10;;;2.30;99.90;;;;;;5064198;28;20210;-81
2023/04/06 00:58:53;;;;;;;0.10;0.10;;;2.30;99.90;;;;;;5063011;28;20740;-81
2023/04/06 01:01:18;;;;;;;0.10;0.10;;;2.50;99.90;;;;;;5061248;28;20219;-80
2023/04/06 01:03:47;;;;;;;0.10;0.10;;;2.60;99.90;;;;;;5067285;28;20243;-80
2023/04/06 01:06:12;;;;;;;0.10;0.10;;;2.70;99.90;;;;;;5064040;28;20211;-80
2023/04/06 01:08:38;;;;;;;0.10;0.10;;;2.70;99.90;;;;;;5064055;28;21142;-80
2023/04/06 01:11:04;;;;;;;0.10;0.10;;;2.70;99.90;;;;;;5062449;28;20248;-81
2023/04/06 01:13:30;;;;;;;0.10;0.10;;;2.80;99.90;;;;;;5065666;28;20319;-80
2023/04/06 01:15:55;;;;;;;0.10;0.10;;;2.80;99.90;;;;;;5065934;28;20195;-81
2023/04/06 01:18:28;;;;;;;0.10;0.10;;;2.70;99.90;;;;;;5064251;28;20188;-81
2023/04/06 01:20:54;;;;;;;0.10;0.10;;;2.60;99.90;;;;;;5066320;28;20181;-80
2023/04/06 01:23:20;;;;;;;0.10;0.10;;;2.50;99.90;;;;;;5063813;28;20207;-81
2023/04/06 01:25:45;;;;;;;0.10;0.10;;;2.30;99.90;;;;;;5064580;28;20218;-81
2023/04/06 01:28:11;;;;;;;0.10;0.10;;;2.40;99.90;;;;;;5066024;28;20181;-80
2023/04/06 01:30:36;;;;;;;0.10;0.10;;;2.50;99.90;;;;;;5066877;28;20252;-81
2023/04/06 01:33:02;;;;;;;0.10;0.10;;;2.50;99.90;;;;;;5061193;28;20229;-80
2023/04/06 01:35:28;;;;;;;0.10;0.10;;;2.40;99.90;;;;;;5058628;28;20231;-81
2023/04/06 01:37:54;;;;;;;0.00;0.00;;;2.50;99.90;;;;;;5064246;28;20177;-81
2023/04/06 01:40:20;;;;;;;0.10;0.10;;;2.50;99.90;;;;;;5062770;28;20725;-81
2023/04/06 01:42:46;;;;;;;0.10;0.10;;;2.40;99.90;;;;;;5064001;28;20220;-81
2023/04/06 01:45:11;;;;;;;0.10;0.10;;;2.40;99.90;;;;;;5059104;28;20215;-81
2023/04/06 01:47:37;;;;;;;0.00;0.00;;;2.50;99.90;;;;;;5063814;28;20191;-81
2023/04/06 01:50:05;;;;;;;0.10;0.10;;;2.40;99.90;;;;;;5061964;28;20184;-81
2023/04/06 01:52:32;;;;;;;0.10;0.10;;;2.40;99.90;;;;;;5061384;28;20208;-81
2023/04/06 01:54:57;;;;;;;0.10;0.10;;;2.40;99.90;;;;;;5065460;28;20191;-81
2023/04/06 01:57:23;;;;;;;0.10;0.10;;;2.50;99.90;;;;;;5062170;28;20533;-82
2023/04/06 01:59:49;;;;;;;0.10;0.10;;;2.50;99.90;;;;;;5064799;28;20219;-82
2023/04/06 02:02:14;;;;;;;0.10;0.10;;;2.50;99.90;;;;;;5062732;28;20223;-81
2023/04/06 02:04:40;;;;;;;0.10;0.10;;;2.50;99.90;;;;;;5065631;28;20192;-82
2023/04/06 02:07:05;;;;;;;0.03;0.03;;;2.50;99.90;;;;;;5066693;28;20232;-82
2023/04/06 02:09:31;;;;;;;0.10;0.10;;;2.50;99.90;;;;;;5065828;28;20178;-82
2023/04/06 02:11:56;;;;;;;0.10;0.10;;;2.60;99.90;;;;;;5063067;28;20208;-81
2023/04/06 02:14:25;;;;;;;0.10;0.10;;;2.60;99.90;;;;;;5060711;28;20194;-82
2023/04/06 02:16:51;;;;;;;0.10;0.10;;;2.60;99.90;;;;;;5058210;28;20188;-82
2023/04/06 02:19:16;;;;;;;0.10;0.10;;;2.60;99.90;;;;;;5065840;28;20275;-81
2023/04/06 02:21:42;;;;;;;0.10;0.10;;;2.50;99.90;;;;;;5059991;28;20331;-81
2023/04/06 02:24:08;;;;;;;0.10;0.10;;;2.60;99.90;;;;;;5058150;28;20668;-81
2023/04/06 02:26:33;;;;;;;0.00;0.00;;;2.60;99.90;;;;;;5063271;28;20579;-81
2023/04/06 02:28:59;;;;;;;0.10;0.10;;;2.60;99.90;;;;;;5059563;28;20189;-81
2023/04/06 02:31:24;;;;;;;0.10;0.10;;;2.60;99.90;;;;;;5063685;28;20208;-81
2023/04/06 02:33:50;;;;;;;0.10;0.10;;;2.40;99.90;;;;;;5062743;28;20175;-80
2023/04/06 02:36:16;;;;;;;0.10;0.10;;;2.10;99.90;;;;;;5063173;28;20219;-80
2023/04/06 02:38:41;;;;;;;0.10;0.10;;;2.00;99.90;;;;;;5058645;28;20533;-81
2023/04/06 02:41:07;;;;;;;0.00;0.00;;;2.00;99.90;;;;;;5062837;28;20181;-81
2023/04/06 02:43:33;;;;;;;0.00;0.00;;;1.90;99.90;;;;;;5062707;28;20215;-81
2023/04/06 02:45:58;;;;;;;0.10;0.10;;;2.00;99.90;;;;;;5062428;28;20628;-80
2023/04/06 02:48:24;;;;;;;0.10;0.10;;;2.10;99.90;;;;;;5060549;28;20183;-80
2023/04/06 02:50:49;;;;;;;0.10;0.10;;;2.20;99.90;;;;;;5059098;28;20532;-81
2023/04/06 02:53:15;;;;;;;0.10;0.10;;;2.20;99.90;;;;;;5063403;28;20723;-81
2023/04/06 02:55:40;;;;;;;0.00;0.00;;;2.10;99.90;;;;;;5062239;28;20188;-80
2023/04/06 02:58:06;;;;;;;0.10;0.10;;;2.00;99.90;;;;;;5064940;28;20281;-80
2023/04/06 03:00:32;;;;;;;0.10;0.10;;;1.90;99.90;;;;;;5064185;28;21003;-80
2023/04/06 03:02:57;;;;;;;0.10;0.10;;;2.00;99.90;;;;;;5062324;28;20745;-81
2023/04/06 03:05:23;;;;;;;0.10;0.10;;;1.90;99.90;;;;;;5068368;28;20209;-82
2023/04/06 03:07:48;;;;;;;0.00;0.00;;;1.90;99.90;;;;;;5067750;28;20187;-81
2023/04/06 03:10:14;;;;;;;0.10;0.10;;;2.00;99.90;;;;;;5065780;28;20184;-81
2023/04/06 03:12:41;;;;;;;0.10;0.10;;;2.10;99.90;;;;;;5068562;28;20191;-81
2023/04/06 03:15:07;;;;;;;0.10;0.10;;;2.10;99.90;;;;;;5059755;28;20234;-81
2023/04/06 03:17:33;;;;;;;0.10;0.10;;;2.20;99.90;;;;;;5066574;28;20307;-81
2023/04/06 03:19:58;;;;;;;0.10;0.10;;;2.10;99.90;;;;;;5063008;28;20275;-81
2023/04/06 03:22:24;;;;;;;0.00;0.00;;;2.00;99.90;;;;;;5064809;28;20218;-81
2023/04/06 03:24:50;;;;;;;0.00;0.00;;;2.00;99.90;;;;;;5068056;28;20209;-81
2023/04/06 03:27:16;;;;;;;0.10;0.10;;;1.90;99.90;;;;;;5060553;28;20257;-81
2023/04/06 03:29:41;;;;;;;0.10;0.10;;;1.90;99.90;;;;;;5066113;28;20657;-81
2023/04/06 03:32:07;;;;;;;0.10;0.10;;;1.90;99.90;;;;;;5064673;28;20196;-81
2023/04/06 03:34:32;;;;;;;0.10;0.10;;;1.90;99.90;;;;;;5063691;28;20583;-81
2023/04/06 03:36:58;;;;;;;0.10;0.10;;;1.90;99.90;;;;;;5063208;28;20198;-81
2023/04/06 03:39:23;;;;;;;0.10;0.10;;;2.00;99.90;;;;;;5059476;28;20213;-81
2023/04/06 03:41:49;;;;;;;0.10;0.10;;;2.00;99.90;;;;;;5061182;28;20581;-81
2023/04/06 03:44:15;;;;;;;0.10;0.10;;;2.10;99.90;;;;;;5062571;28;20207;-81
2023/04/06 03:46:40;;;;;;;0.10;0.10;;;2.20;99.90;;;;;;5063733;28;20216;-80
2023/04/06 03:49:06;;;;;;;0.10;0.10;;;2.20;99.90;;;;;;5057941;28;20181;-80
2023/04/06 03:51:31;;;;;;;0.00;0.00;;;2.10;99.90;;;;;;5066028;28;20253;-81
2023/04/06 03:53:57;;;;;;;0.07;0.07;;;2.00;99.90;;;;;;5067424;28;20190;-81
2023/04/06 03:56:22;;;;;;;0.10;0.10;;;2.00;99.90;;;;;;5063566;28;20187;-81
2023/04/06 03:58:51;;;;;;;0.10;0.10;;;2.00;99.90;;;;;;5055354;28;20225;-81
2023/04/06 04:01:19;;;;;;;0.10;0.10;;;2.00;99.90;;;;;;5057958;28;20200;-82
2023/04/06 04:03:45;;;;;;;0.10;0.10;;;2.10;99.90;;;;;;5061427;28;20207;-82
2023/04/06 04:06:10;;;;;;;0.10;0.10;;;2.00;99.90;;;;;;5056576;28;20565;-82
2023/04/06 04:08:36;;;;;;;0.07;0.07;;;2.00;99.90;;;;;;5058990;28;20208;-81
2023/04/06 04:11:02;;;;;;;0.10;0.10;;;2.00;99.90;;;;;;5060693;28;20189;-81
2023/04/06 04:13:28;;;;;;;0.10;0.10;;;2.00;99.90;;;;;;5063501;28;20557;-81
2023/04/06 04:15:53;;;;;;;0.10;0.10;;;2.00;99.90;;;;;;5062345;28;20192;-81
2023/04/06 04:18:19;;;;;;;0.10;0.10;;;2.00;99.90;;;;;;5059755;28;20188;-81
2023/04/06 04:20:45;;;;;;;0.10;0.10;;;1.90;99.90;;;;;;5061365;28;20568;-81
2023/04/06 04:23:10;;;;;;;0.10;0.10;;;1.90;99.90;;;;;;5060089;28;20209;-81
2023/04/06 04:25:36;;;;;;;0.10;0.10;;;1.90;99.90;;;;;;5056573;28;20711;-81
2023/04/06 04:28:02;;;;;;;0.10;0.10;;;2.00;99.90;;;;;;5063829;28;20256;-81
2023/04/06 04:30:27;;;;;;;0.10;0.10;;;2.00;99.90;;;;;;5061122;28;20195;-80
2023/04/06 04:32:53;;;;;;;0.00;0.00;;;2.00;99.90;;;;;;5058197;28;20207;-81
2023/04/06 04:35:18;;;;;;;0.10;0.10;;;2.00;99.90;;;;;;5060365;28;20297;-81
2023/04/06 04:37:44;;;;;;;0.00;0.00;;;2.00;99.90;;;;;;5062836;28;20203;-81
2023/04/06 04:40:10;;;;;;;0.10;0.10;;;2.00;99.90;;;;;;5062325;28;20192;-81
2023/04/06 04:42:36;;;;;;;0.10;0.10;;;2.00;99.90;;;;;;5062130;28;20211;-80
2023/04/06 04:45:01;;;;;;;0.10;0.10;;;2.00;99.90;;;;;;5057285;28;20684;-81
2023/04/06 04:47:27;;;;;;;0.10;0.10;;;2.00;99.90;;;;;;5060847;28;20195;-81
2023/04/06 04:49:52;;;;;;;0.10;0.10;;;2.10;99.90;;;;;;5062605;28;20677;-82
2023/04/06 04:52:18;;;;;;;0.10;0.10;;;2.10;99.90;;;;;;5060670;28;20329;-83
2023/04/06 04:54:43;;;;;;;0.10;0.10;;;2.10;99.90;;;;;;5058892;28;20237;-82
2023/04/06 04:57:09;;;;;;;0.00;0.00;;;2.10;99.90;;;;;;5059974;28;20183;-80
2023/04/06 04:59:35;;;;;;;0.10;0.10;;;2.20;99.90;;;;;;5057474;28;20556;-80
2023/04/06 05:02:00;;;;;;;0.10;0.10;;;2.20;99.90;;;;;;5060849;28;20219;-81
2023/04/06 05:04:26;;;;;;;0.10;0.10;;;2.20;99.90;;;;;;5057019;28;20894;-80
2023/04/06 05:07:05;;;;;;;0.10;0.10;;;2.20;99.90;;;;;;5058569;28;20620;-81
2023/04/06 05:09:31;;;;;;;0.10;0.10;;;2.20;99.90;;;;;;5060750;28;20181;-80
2023/04/06 05:11:58;;;;;;;0.10;0.10;;;2.10;99.90;;;;;;5060105;28;20208;-80
2023/04/06 05:14:24;;;;;;;0.10;0.10;;;2.00;99.90;;;;;;5062032;28;20238;-81
2023/04/06 05:16:50;;;;;;;0.10;0.10;;;2.10;99.90;;;;;;5061042;28;20189;-82
2023/04/06 05:19:15;;;;;;;0.10;0.10;;;1.90;99.90;;;;;;5061374;28;20192;-81
2023/04/06 05:21:41;;;;;;;0.10;0.10;;;1.80;99.90;;;;;;5056830;28;20308;-82
2023/04/06 05:24:07;;;;;;;0.10;0.10;;;1.70;99.90;;;;;;5060190;28;20195;-83
2023/04/06 05:26:32;;;;;;;0.00;0.00;;;1.80;99.90;;;;;;5061580;28;20223;-84
2023/04/06 05:28:58;;;;;;;0.10;0.10;;;1.70;99.90;;;;;;5058344;28;20185;-82
2023/04/06 05:31:23;;;;;;;0.10;0.10;;;1.60;99.90;;;;;;5061281;28;20173;-83
2023/04/06 05:33:49;;;;;;;0.10;0.10;;;1.60;99.90;;;;;;5055645;28;20186;-82
2023/04/06 05:36:15;;;;;;;0.10;0.10;;;1.80;99.90;;;;;;5061941;28;20237;-82
2023/04/06 05:38:40;;;;;;;0.00;0.00;;;1.70;99.90;;;;;;5065969;28;20205;-83
2023/04/06 05:41:06;;;;;;;0.03;0.03;;;1.80;99.90;;;;;;5063068;28;20199;-82
2023/04/06 05:43:31;;;;;;;0.10;0.10;;;1.90;99.90;;;;;;5064571;28;20202;-80
2023/04/06 05:45:57;;;;;;;0.10;0.10;;;2.10;99.90;;;;;;5068107;28;20205;-81
2023/04/06 05:48:22;;;;;;;0.10;0.10;;;2.10;99.90;;;;;;5062382;28;20178;-81
2023/04/06 05:50:50;;;;;;;0.10;0.10;;;2.20;99.90;;;;;;5061834;28;20254;-81
2023/04/06 05:53:16;;;;;;;0.10;0.10;;;2.40;99.90;;;;;;5056646;28;20744;-81
2023/04/06 05:55:41;;;;;;;0.10;0.10;;;2.50;99.90;;;;;;5063669;28;20214;-82
2023/04/06 05:58:07;;;;;;;0.10;0.10;;;2.80;99.90;;;;;;5061668;28;20313;-81
2023/04/06 06:00:33;;;;;;;0.10;0.10;;;3.00;99.90;;;;;;5061369;28;20331;-82
2023/04/06 06:02:58;;;;;;;0.10;0.10;;;3.20;99.90;;;;;;5063264;28;20224;-82
2023/04/06 06:05:24;;;;;;;0.10;0.10;;;3.40;99.90;;;;;;5057724;28;20204;-81
2023/04/06 06:07:49;;;;;;;0.10;0.10;;;3.50;99.90;;;;;;5063183;28;20208;-81
2023/04/06 06:10:15;;;;;;;0.10;0.10;;;3.60;99.90;;;;;;5061505;28;20192;-81
2023/04/06 06:12:41;;;;;;;0.10;0.10;;;3.60;99.90;;;;;;5065003;28;20197;-81
2023/04/06 06:15:06;;;;;;;0.10;0.10;;;3.70;99.90;;;;;;5061449;28;20188;-81
2023/04/06 06:17:32;;;;;;;0.10;0.10;;;3.50;99.90;;;;;;5056445;28;20203;-81
2023/04/06 06:19:57;;;;;;;0.10;0.10;;;3.20;99.90;;;;;;5061374;28;20191;-80
2023/04/06 06:22:23;;;;;;;0.10;0.10;;;3.00;99.90;;;;;;5063335;28;20205;-80
2023/04/06 06:24:49;;;;;;;0.10;0.10;;;3.20;99.90;;;;;;5062103;28;20185;-81
2023/04/06 06:27:15;;;;;;;0.10;0.10;;;3.40;99.90;;;;;;5060870;28;20280;-79
2023/04/06 06:29:41;;;;;;;0.10;0.10;;;3.40;99.90;;;;;;5056926;28;20234;-81
2023/04/06 06:32:08;;;;;;;0.10;0.10;;;3.50;99.90;;;;;;5058952;28;20208;-80
2023/04/06 06:34:34;;;;;;;0.00;0.00;;;3.90;99.90;;;;;;5053726;28;20220;-80
2023/04/06 06:37:00;;;;;;;0.10;0.10;;;4.20;99.90;;;;;;5048732;28;20192;-80
2023/04/06 06:39:26;;;;;;;0.10;0.10;;;4.40;99.90;;;;;;5057668;28;20658;-80
2023/04/06 06:41:51;;;;;;;0.10;0.10;;;4.50;99.90;;;;;;5057644;28;20213;-80
2023/04/06 06:44:17;;;;;;;0.10;0.10;;;4.80;99.90;;;;;;5059326;28;20562;-81
2023/04/06 06:46:42;;;;;;;0.10;0.10;;;4.30;99.90;;;;;;5055362;28;20205;-80
2023/04/06 06:49:08;;;;;;;0.10;0.10;;;4.20;99.90;;;;;;5058566;28;20638;-80
2023/04/06 06:51:34;;;;;;;0.10;0.10;;;4.50;99.90;;;;;;5058219;28;20194;-81
2023/04/06 06:54:00;;;;;;;0.10;0.10;;;4.50;99.90;;;;;;5054443;28;20184;-80
2023/04/06 06:56:26;;;;;;;0.10;0.10;;;5.00;99.90;;;;;;5058434;28;20189;-81
2023/04/06 06:58:52;;;;;;;0.10;0.10;;;5.10;99.90;;;;;;5060177;28;20181;-79
2023/04/06 07:01:17;;;;;;;0.10;0.10;;;5.30;99.90;;;;;;5061152;28;20197;-80
2023/04/06 07:03:43;;;;;;;0.10;0.10;;;5.60;99.90;;;;;;5050058;28;20206;-81
2023/04/06 07:06:08;;;;;;;0.10;0.10;;;5.70;99.90;;;;;;5044758;28;20209;-81
2023/04/06 07:08:34;;;;;;;0.10;0.10;;;5.90;99.90;;;;;;5056666;28;20294;-81
2023/04/06 07:10:59;;;;;;;0.03;0.03;;;6.20;99.90;;;;;;5059930;28;20658;-81
2023/04/06 07:13:26;;;;;;;0.10;0.10;;;6.50;99.90;;;;;;5059960;28;20202;-81
2023/04/06 07:15:52;;;;;;;0.10;0.10;;;6.50;99.90;;;;;;5062894;28;20892;-82
2023/04/06 07:18:19;;;;;;;0.10;0.10;;;6.30;99.90;;;;;;5059560;28;20187;-82
2023/04/06 07:20:44;;;;;;;0.10;0.10;;;5.80;99.90;;;;;;5060818;28;20190;-81
2023/04/06 07:23:10;;;;;;;0.20;0.20;;;5.50;99.90;;;;;;5065689;28;20552;-81
2023/04/06 07:25:35;;;;;;;0.10;0.10;;;5.50;99.90;;;;;;5063991;28;20231;-82
2023/04/06 07:28:02;;;;;;;0.10;0.10;;;5.70;99.90;;;;;;5062592;28;20212;-81
2023/04/06 07:30:28;;;;;;;0.10;0.10;;;6.30;99.90;;;;;;5064241;28;20182;-81
2023/04/06 07:32:57;;;;;;;0.10;0.10;;;6.60;99.90;;;;;;5063430;28;20217;-82
2023/04/06 07:35:27;;;;;;;0.10;0.10;;;7.00;99.90;;;;;;5062113;28;20200;-82
2023/04/06 07:37:56;;;;;;;0.10;0.10;;;7.20;99.90;;;;;;5062907;28;20193;-82
2023/04/06 07:40:22;;;;;;;0.10;0.10;;;7.40;99.90;;;;;;5062643;28;20195;-81
2023/04/06 07:42:47;;;;;;;0.10;0.10;;;7.40;99.90;;;;;;5061621;28;20216;-81
2023/04/06 07:45:13;;;;;;;0.10;0.10;;;7.70;99.90;;;;;;5062548;28;20219;-81
2023/04/06 07:47:39;;;;;;;0.10;0.10;;;7.90;99.90;;;;;;5067130;28;20180;-82
2023/04/06 07:50:05;;;;;;;0.10;0.10;;;8.10;99.90;;;;;;5062535;28;20180;-82
2023/04/06 07:52:31;;;;;;;0.10;0.10;;;7.30;99.90;;;;;;5064618;28;20198;-82
2023/04/06 07:54:58;;;;;;;0.10;0.10;;;7.80;99.90;;;;;;5071049;28;20185;-82
2023/04/06 07:57:23;;;;;;;0.10;0.10;;;8.00;99.90;;;;;;5069141;28;20248;-82
2023/04/06 07:59:49;;;;;;;0.10;0.10;;;8.20;99.90;;;;;;5072406;28;20203;-82
2023/04/06 08:02:14;;;;;;;0.10;0.10;;;8.40;99.90;;;;;;5071276;28;20213;-81
2023/04/06 08:04:40;;;;;;;0.10;0.10;;;7.60;99.90;;;;;;5067142;28;20263;-82
2023/04/06 08:07:06;;;;;;;0.10;0.10;;;7.50;99.90;;;;;;5062499;28;20207;-81
2023/04/06 08:09:32;;;;;;;0.10;0.10;;;7.80;99.90;;;;;;5064324;28;20192;-82
2023/04/06 08:11:57;;;;;;;0.10;0.10;;;7.90;99.90;;;;;;5065968;28;20218;-82
2023/04/06 08:14:23;;;;;;;0.10;0.10;;;8.30;99.90;;;;;;5065000;28;20180;-81
2023/04/06 08:16:48;;;;;;;0.10;0.10;;;8.30;99.90;;;;;;5063410;28;20196;-82
2023/04/06 08:19:16;;;;;;;0.10;0.10;;;8.50;99.90;;;;;;5063171;28;20180;-81
2023/04/06 08:21:43;;;;;;;0.10;0.10;;;8.90;99.90;;;;;;5063187;28;20615;-81
2023/04/06 08:24:08;;;;;;;3.40;1.07;;;9.30;99.90;;;;;;5064788;28;20180;-81
2023/04/06 08:26:34;;;;;;;0.10;0.10;;;9.60;99.90;;;;;;5065140;28;20204;-81
2023/04/06 08:29:00;;;;;;;0.10;0.10;;;9.90;99.90;;;;;;5058271;28;20919;-82
2023/04/06 08:31:26;;;;;;;0.10;0.10;;;9.90;99.90;;;;;;5062322;28;20248;-82
2023/04/06 08:33:51;;;;;;;0.00;0.00;;;10.00;99.90;;;;;;5062467;28;20191;-81
2023/04/06 08:36:22;;;;;;;0.10;0.10;;;10.30;99.90;;;;;;5062181;28;20185;-82
2023/04/06 08:38:48;;;;;;;0.10;0.10;;;10.50;99.90;;;;;;5056266;28;20238;-81
2023/04/06 08:41:14;;;;;;;0.10;0.10;;;10.60;99.90;;;;;;5063924;28;20690;-82
2023/04/06 08:43:48;;;;;;;0.10;0.10;;;10.40;99.90;;;;;;5062317;28;20199;-82
2023/04/06 08:46:15;;;;;;;0.10;0.10;;;9.80;99.90;;;;;;5062999;28;20213;-82
2023/04/06 08:48:42;;;;;;;0.10;0.10;;;9.50;99.90;;;;;;5063574;28;20239;-81
2023/04/06 08:51:09;;;;;;;0.10;0.10;;;10.10;99.90;;;;;;5059447;28;20185;-82
2023/04/06 08:53:35;;;;;;;0.10;0.10;;;10.40;99.90;;;;;;5054401;28;20208;-82
2023/04/06 08:56:02;;;;;;;0.10;0.10;;;10.50;99.90;;;;;;5062157;28;20184;-82
2023/04/06 08:58:32;;;;;;;0.10;0.10;;;10.80;99.90;;;;;;5058984;28;20195;-82
2023/04/06 09:00:58;;;;;;;0.10;0.10;;;11.00;99.90;;;;;;5058867;28;20257;-82
2023/04/06 09:03:26;;;;;;;0.10;0.10;;;11.20;99.90;;;;;;5062825;28;20239;-82
2023/04/06 09:05:51;;;;;;;0.10;0.10;;;11.30;99.90;;;;;;5060829;28;20209;-82
2023/04/06 09:08:17;;;;;;;0.10;0.10;;;11.40;99.90;;;;;;5059163;28;20193;-84
2023/04/06 09:10:44;;;;;;;0.10;0.10;;;11.10;99.90;;;;;;5060520;28;20193;-82
2023/04/06 09:13:09;;;;;;;0.10;0.10;;;11.20;99.90;;;;;;5062401;28;20219;-82
2023/04/06 09:15:35;;;;;;;0.10;0.10;;;10.50;99.90;;;;;;5064015;28;20181;-82
2023/04/06 09:18:01;;;;;;;0.10;0.10;;;10.90;99.90;;;;;;5067704;28;20181;-83
2023/04/06 09:20:28;;;;;;;0.10;0.10;;;11.30;99.90;;;;;;5067125;28;20246;-83
2023/04/06 09:22:54;;;;;;;0.10;0.10;;;11.40;99.90;;;;;;5065794;28;20204;-83
2023/04/06 09:25:22;;;;;;;0.10;0.10;;;11.50;99.90;;;;;;5066059;28;20213;-81
2023/04/06 09:27:49;;;;;;;0.10;0.10;;;11.70;99.90;;;;;;5065532;28;20207;-83
2023/04/06 09:30:16;;;;;;;0.10;0.10;;;11.70;99.90;;;;;;5064832;28;20240;-83
2023/04/06 09:32:48;;;;;;;0.10;0.10;;;11.50;99.90;;;;;;5061416;28;20278;-81
2023/04/06 09:35:15;;;;;;;0.03;0.03;;;11.80;99.90;;;;;;5062677;28;20191;-82
2023/04/06 09:37:41;;;;;;;0.00;0.00;;;12.00;99.90;;;;;;5061581;28;20187;-82
2023/04/06 09:40:07;;;;;;;0.10;0.10;;;11.90;99.90;;;;;;5064483;28;20896;-82
2023/04/06 09:42:34;;;;;;;0.10;0.10;;;12.00;99.90;;;;;;5063167;28;20296;-82
2023/04/06 09:44:59;;;;;;;0.10;0.10;;;11.60;99.90;;;;;;5062965;28;20193;-82
2023/04/06 09:47:26;;;;;;;0.00;0.00;;;12.00;99.90;;;;;;5066519;28;20195;-83
2023/04/06 09:49:57;;;;;;;0.10;0.10;;;12.40;99.90;;;;;;5063849;28;20238;-82
2023/04/06 09:52:30;;;;;;;0.10;0.10;;;12.60;99.90;;;;;;5059491;28;20236;-82
2023/04/06 09:55:01;;;;;;;0.10;0.10;;;11.90;99.90;;;;;;5058726;28;20594;-82
2023/04/06 09:57:30;;;;;;;0.10;0.10;;;12.30;99.90;;;;;;5062690;28;20188;-82
2023/04/06 10:00:11;;;;;;;0.10;0.10;;;12.60;99.90;;;;;;5061358;28;20268;-81
2023/04/06 10:02:55;;;;;;;0.10;0.10;;;12.60;99.90;;;;;;5063494;28;20212;-82
2023/04/06 10:05:29;;;;;;;0.10;0.10;;;12.90;99.90;;;;;;5064521;28;20345;-81
2023/04/06 10:07:59;;;;;;;0.10;0.10;;;12.10;99.90;;;;;;5062792;28;20209;-82
2023/04/06 10:10:25;;;;;;;0.10;0.10;;;12.00;99.90;;;;;;5060684;28;20181;-81
2023/04/06 10:12:51;;;;;;;0.10;0.10;;;12.40;99.90;;;;;;5056734;28;20196;-82
2023/04/06 10:15:17;;;;;;;0.10;0.10;;;12.80;99.90;;;;;;5061825;28;20180;-82
2023/04/06 10:17:43;;;;;;;0.10;0.10;;;13.10;99.90;;;;;;5056281;28;20667;-82
2023/04/06 10:20:17;;;;;;;0.10;0.10;;;13.10;99.90;;;;;;5060023;28;20192;-81
2023/04/06 10:23:02;;;;;;;0.10;0.10;;;12.90;99.90;;;;;;5056674;28;20291;-81
2023/04/06 10:25:32;;;;;;;4.13;4.00;;;12.80;99.90;;;;;;5063460;28;20196;-82
2023/04/06 10:28:08;;;;;;;0.10;0.10;;;11.30;99.90;;;;;;5066821;28;20191;-81
2023/04/06 10:30:35;;;;;;;0.10;0.10;;;11.50;99.90;;;;;;5067543;28;20179;-81
2023/04/06 10:33:12;;;;;;;0.10;0.10;;;11.50;99.90;;;;;;5060956;28;20201;-81
2023/04/06 10:35:40;;;;;;;0.10;0.10;;;12.10;99.90;;;;;;5058930;28;20182;-81
2023/04/06 10:38:07;;;;;;;0.10;0.10;;;12.60;99.90;;;;;;5059938;28;20188;-82
2023/04/06 10:40:36;;;;;;;0.10;0.10;;;12.80;99.90;;;;;;5061352;28;20638;-82
2023/04/06 10:43:18;;;;;;;0.10;0.10;;;13.00;99.90;;;;;;5061563;28;20209;-82
2023/04/06 10:45:44;;;;;;;0.10;0.10;;;13.10;99.90;;;;;;5059250;28;20215;-82
2023/04/06 10:48:17;;;;;;;0.10;0.10;;;14.00;99.90;;;;;;5064596;28;21263;-81
2023/04/06 10:50:50;;;;;;;0.00;0.00;;;14.70;99.90;;;;;;5065532;28;20745;-82
2023/04/06 10:53:23;;;;;;;0.10;0.10;;;15.00;99.90;;;;;;5061735;28;20199;-81
2023/04/06 10:55:56;;;;;;;0.10;0.10;;;15.00;99.90;;;;;;5058746;28;20207;-82
2023/04/06 10:58:27;;;;;;;0.10;0.10;;;15.00;99.90;;;;;;5061635;28;20179;-82
2023/04/06 11:00:54;;;;;;;0.10;0.10;;;15.20;99.90;;;;;;5059170;28;20203;-82
2023/04/06 11:03:20;;;;;;;0.10;0.10;;;15.40;99.90;;;;;;5061955;28;20223;-82
2023/04/06 11:05:50;;;;;;;0.10;0.10;;;15.50;99.90;;;;;;5079848;28;20589;-82
2023/04/06 11:08:26;;;;;;;0.10;0.10;;;15.60;99.90;;;;;;5058545;28;20174;-82
2023/04/06 11:10:51;;;;;;;0.10;0.10;;;15.60;99.90;;;;;;5061151;28;20203;-82
2023/04/06 11:13:17;;;;;;;0.10;0.10;;;15.60;99.90;;;;;;5062354;28;20695;-83
2023/04/06 11:15:43;;;;;;;0.10;0.10;;;15.60;99.90;;;;;;5058821;28;20192;-83
2023/04/06 11:18:08;;;;;;;0.10;0.10;;;15.60;99.90;;;;;;5061668;28;20285;-83
2023/04/06 11:20:34;;;;;;;0.10;0.10;;;15.60;99.90;;;;;;5063507;28;20678;-83
2023/04/06 11:22:59;;;;;;;0.10;0.10;;;15.70;99.90;;;;;;5062414;28;20204;-83
2023/04/06 11:25:31;;;;;;;0.10;0.10;;;15.80;99.90;;;;;;5062545;28;20205;-82
2023/04/06 11:27:56;;;;;;;0.10;0.10;;;15.90;99.90;;;;;;5061294;28;20181;-82
2023/04/06 11:30:22;;;;;;;0.10;0.10;;;16.00;99.90;;;;;;5065992;28;20177;-82
2023/04/06 11:32:48;;;;;;;0.10;0.10;;;16.00;99.90;;;;;;5071268;28;20204;-82
2023/04/06 11:35:21;;;;;;;0.10;0.10;;;15.90;99.90;;;;;;5069961;28;20193;-82
2023/04/06 11:37:49;;;;;;;0.10;0.10;;;16.20;99.90;;;;;;5071547;28;20184;-82
2023/04/06 11:40:15;;;;;;;0.10;0.10;;;16.50;99.90;;;;;;5068890;28;20535;-82
2023/04/06 11:42:41;;;;;;;0.10;0.10;;;16.50;99.90;;;;;;5066241;28;20302;-82
2023/04/06 11:45:08;;;;;;;0.10;0.10;;;16.40;99.90;;;;;;5062882;28;20658;-82
2023/04/06 11:47:36;;;;;;;0.10;0.10;;;16.60;99.90;;;;;;5068253;28;20185;-82
2023/04/06 11:50:15;;;;;;;0.10;0.10;;;16.70;99.90;;;;;;5068352;28;20265;-82
2023/04/06 11:52:41;;;;;;;0.10;0.10;;;16.80;99.90;;;;;;5063319;28;20579;-82
2023/04/06 11:55:13;;;;;;;0.10;0.10;;;16.80;99.90;;;;;;5067252;28;20483;-82
2023/04/06 11:57:39;;;;;;;0.10;0.10;;;16.90;99.90;;;;;;5066167;28;20239;-82
2023/04/06 12:00:06;;;;;;;0.10;0.10;;;17.00;99.90;;;;;;5065092;28;20196;-82
2023/04/06 12:02:32;;;;;;;0.10;0.10;;;17.10;99.90;;;;;;5066192;28;20219;-82
2023/04/06 12:04:57;;;;;;;0.10;0.10;;;17.10;99.90;;;;;;5062129;28;20189;-83
2023/04/06 12:07:23;;;;;;;0.10;0.10;;;17.10;99.90;;;;;;5061472;28;20189;-83
2023/04/06 12:09:48;;;;;;;0.10;0.10;;;16.80;99.90;;;;;;5057373;28;20193;-82
2023/04/06 12:12:14;;;;;;;0.10;0.10;;;16.60;99.90;;;;;;5060815;28;20207;-84
2023/04/06 12:14:40;;;;;;;0.10;0.10;;;16.90;99.90;;;;;;5063240;28;20182;-83
2023/04/06 12:17:05;;;;;;;0.10;0.10;;;17.10;99.90;;;;;;5062066;28;20192;-83
2023/04/06 12:19:31;;;;;;;0.10;0.10;;;17.30;99.90;;;;;;5056794;28;20189;-84
2023/04/06 12:21:57;;;;;;;0.10;0.10;;;17.30;99.90;;;;;;5061199;28;20291;-83
2023/04/06 12:24:23;;;;;;;0.10;0.10;;;17.50;99.90;;;;;;5053504;28;20196;-84
2023/04/06 12:26:48;;;;;;;0.10;0.10;;;17.40;99.90;;;;;;5058708;28;20261;-84
2023/04/06 12:29:14;;;;;;;0.10;0.10;;;17.50;99.90;;;;;;5055194;28;20193;-83
2023/04/06 12:31:44;;;;;;;0.10;0.10;;;17.50;99.90;;;;;;5057276;28;20204;-83
2023/04/06 12:34:10;;;;;;;0.10;0.10;;;17.50;99.90;;;;;;5058609;28;20215;-84
2023/04/06 12:36:37;;;;;;;0.10;0.10;;;17.20;99.90;;;;;;5062388;28;20189;-85
2023/04/06 12:39:03;;;;;;;0.10;0.10;;;17.40;99.90;;;;;;5058864;28;20197;-82
2023/04/06 12:41:29;;;;;;;0.10;0.10;;;17.50;99.90;;;;;;5069005;28;20188;-83
2023/04/06 12:43:55;;;;;;;0.10;0.10;;;17.60;99.90;;;;;;5068172;28;20695;-85
2023/04/06 12:46:21;;;;;;;0.10;0.10;;;17.60;99.90;;;;;;5067621;28;20209;-83
2023/04/06 12:48:47;;;;;;;0.10;0.10;;;17.60;99.90;;;;;;5072622;28;20192;-85